sensor_id;sensor_type;location;lat;lon;timestamp;temperature;humidity
10057;DHT22;5068;51.286;7.518;2022-10-31T00:01:26;9.20;64.70
10057;DHT22;5068;51.286;7.518;2022-10-31T00:03:05;9.20;64.80
10057;DHT22;5068;51.286;7.518;2022-10-31T00:04:43;9.20;65.00
10057;DHT22;5068;51.286;7.518;2022-10-31T00:06:23;9.20;65.00
10057;DHT22;5068;51.286;7.518;2022-10-31T00:08:04;9.20;65.00
10057;DHT22;5068;51.286;7.518;2022-10-31T00:09:44;9.20;65.00
10057;DHT22;5068;51.286;7.518;2022-10-31T00:11:22;9.20;65.00
10057;DHT22;5068;51.286;7.518;2022-10-31T00:12:59;9.10;65.00
10057;DHT22;5068;51.286;7.518;2022-10-31T00:14:36;9.10;65.10
10057;DHT22;5068;51.286;7.518;2022-10-31T00:16:15;9.10;65.20
10057;DHT22;5068;51.286;7.518;2022-10-31T00:17:53;9.10;65.20
10057;DHT22;5068;51.286;7.518;2022-10-31T00:19:32;9.20;65.50
10057;DHT22;5068;51.286;7.518;2022-10-31T00:21:25;9.10;65.40
10057;DHT22;5068;51.286;7.518;2022-10-31T00:23:04;9.10;65.40
10057;DHT22;5068;51.286;7.518;2022-10-31T00:24:45;9.10;65.40
10057;DHT22;5068;51.286;7.518;2022-10-31T00:26:22;9.10;65.50
10057;DHT22;5068;51.286;7.518;2022-10-31T00:28:01;9.10;65.50
10057;DHT22;5068;51.286;7.518;2022-10-31T00:29:42;9.10;65.60
10057;DHT22;5068;51.286;7.518;2022-10-31T00:31:25;9.10;65.50
10057;DHT22;5068;51.286;7.518;2022-10-31T00:33:07;9.10;65.50
10057;DHT22;5068;51.286;7.518;2022-10-31T00:34:43;9.10;65.40
10057;DHT22;5068;51.286;7.518;2022-10-31T00:36:21;9.10;65.40
10057;DHT22;5068;51.286;7.518;2022-10-31T00:38:00;9.10;65.30
10057;DHT22;5068;51.286;7.518;2022-10-31T00:39:41;9.10;65.20
10057;DHT22;5068;51.286;7.518;2022-10-31T00:41:21;9.10;65.10
10057;DHT22;5068;51.286;7.518;2022-10-31T00:42:59;9.10;65.00
10057;DHT22;5068;51.286;7.518;2022-10-31T00:44:38;9.00;64.80
10057;DHT22;5068;51.286;7.518;2022-10-31T00:46:16;9.00;64.90
10057;DHT22;5068;51.286;7.518;2022-10-31T00:47:56;9.00;65.00
10057;DHT22;5068;51.286;7.518;2022-10-31T00:49:34;9.10;65.00
10057;DHT22;5068;51.286;7.518;2022-10-31T00:51:13;9.00;64.70
10057;DHT22;5068;51.286;7.518;2022-10-31T00:52:52;9.00;64.70
10057;DHT22;5068;51.286;7.518;2022-10-31T00:54:32;9.00;64.70
10057;DHT22;5068;51.286;7.518;2022-10-31T00:56:10;9.00;64.70
10057;DHT22;5068;51.286;7.518;2022-10-31T00:57:48;9.00;64.80
10057;DHT22;5068;51.286;7.518;2022-10-31T00:59:26;9.00;64.80
10057;DHT22;5068;51.286;7.518;2022-10-31T01:01:04;8.90;64.70
10057;DHT22;5068;51.286;7.518;2022-10-31T01:02:41;8.90;64.70
10057;DHT22;5068;51.286;7.518;2022-10-31T01:04:19;8.90;64.70
10057;DHT22;5068;51.286;7.518;2022-10-31T01:05:58;8.90;64.70
10057;DHT22;5068;51.286;7.518;2022-10-31T01:07:39;8.90;64.70
10057;DHT22;5068;51.286;7.518;2022-10-31T01:09:18;8.90;64.60
10057;DHT22;5068;51.286;7.518;2022-10-31T01:11:04;8.90;64.70
10057;DHT22;5068;51.286;7.518;2022-10-31T01:12:48;8.90;64.70
10057;DHT22;5068;51.286;7.518;2022-10-31T01:14:27;8.80;64.50
10057;DHT22;5068;51.286;7.518;2022-10-31T01:16:07;8.80;64.60
10057;DHT22;5068;51.286;7.518;2022-10-31T01:17:46;8.80;64.60
10057;DHT22;5068;51.286;7.518;2022-10-31T01:19:26;8.80;64.60
10057;DHT22;5068;51.286;7.518;2022-10-31T01:21:08;8.80;64.60
10057;DHT22;5068;51.286;7.518;2022-10-31T01:22:54;8.80;64.60
10057;DHT22;5068;51.286;7.518;2022-10-31T01:24:30;8.80;64.60
10057;DHT22;5068;51.286;7.518;2022-10-31T01:26:13;8.80;64.60
10057;DHT22;5068;51.286;7.518;2022-10-31T01:27:50;8.70;64.70
10057;DHT22;5068;51.286;7.518;2022-10-31T01:29:23;8.80;64.70
10057;DHT22;5068;51.286;7.518;2022-10-31T01:30:55;8.70;64.70
10057;DHT22;5068;51.286;7.518;2022-10-31T01:32:33;8.70;64.90
10057;DHT22;5068;51.286;7.518;2022-10-31T01:34:06;8.70;64.90
10057;DHT22;5068;51.286;7.518;2022-10-31T01:35:39;8.70;65.00
10057;DHT22;5068;51.286;7.518;2022-10-31T01:37:13;8.70;65.00
10057;DHT22;5068;51.286;7.518;2022-10-31T01:38:46;8.70;65.10
10057;DHT22;5068;51.286;7.518;2022-10-31T01:40:21;8.70;65.20
10057;DHT22;5068;51.286;7.518;2022-10-31T01:41:54;8.70;65.30
10057;DHT22;5068;51.286;7.518;2022-10-31T01:43:42;8.70;65.50
10057;DHT22;5068;51.286;7.518;2022-10-31T01:45:18;8.60;65.90
10057;DHT22;5068;51.286;7.518;2022-10-31T01:46:54;8.60;65.70
10057;DHT22;5068;51.286;7.518;2022-10-31T01:48:30;8.60;65.90
10057;DHT22;5068;51.286;7.518;2022-10-31T01:50:10;8.60;66.00
10057;DHT22;5068;51.286;7.518;2022-10-31T01:51:54;8.60;66.30
10057;DHT22;5068;51.286;7.518;2022-10-31T01:53:31;8.60;66.50
10057;DHT22;5068;51.286;7.518;2022-10-31T01:55:09;8.70;66.60
10057;DHT22;5068;51.286;7.518;2022-10-31T01:56:51;8.70;66.80
10057;DHT22;5068;51.286;7.518;2022-10-31T01:58:33;8.70;66.80
10057;DHT22;5068;51.286;7.518;2022-10-31T02:00:12;8.70;66.80
10057;DHT22;5068;51.286;7.518;2022-10-31T02:01:50;8.70;67.00
10057;DHT22;5068;51.286;7.518;2022-10-31T02:03:28;8.70;67.00
10057;DHT22;5068;51.286;7.518;2022-10-31T02:05:08;8.70;67.10
10057;DHT22;5068;51.286;7.518;2022-10-31T02:06:49;8.70;67.20
10057;DHT22;5068;51.286;7.518;2022-10-31T02:08:35;8.70;67.60
10057;DHT22;5068;51.286;7.518;2022-10-31T02:10:11;8.70;67.80
10057;DHT22;5068;51.286;7.518;2022-10-31T02:11:47;8.70;68.00
10057;DHT22;5068;51.286;7.518;2022-10-31T02:13:25;8.80;68.30
10057;DHT22;5068;51.286;7.518;2022-10-31T02:15:04;8.80;68.70
10057;DHT22;5068;51.286;7.518;2022-10-31T02:16:40;8.80;68.90
10057;DHT22;5068;51.286;7.518;2022-10-31T02:18:16;8.80;69.00
10057;DHT22;5068;51.286;7.518;2022-10-31T02:20:00;8.80;69.30
10057;DHT22;5068;51.286;7.518;2022-10-31T02:21:52;8.80;69.50
10057;DHT22;5068;51.286;7.518;2022-10-31T02:24:05;8.90;69.60
10057;DHT22;5068;51.286;7.518;2022-10-31T02:28:58;9.00;69.80
10057;DHT22;5068;51.286;7.518;2022-10-31T02:31:03;9.00;69.50
10057;DHT22;5068;51.286;7.518;2022-10-31T02:33:07;9.00;69.10
10057;DHT22;5068;51.286;7.518;2022-10-31T02:34:58;9.00;69.00
10057;DHT22;5068;51.286;7.518;2022-10-31T02:36:54;9.00;68.60
10057;DHT22;5068;51.286;7.518;2022-10-31T02:38:43;9.00;68.50
10057;DHT22;5068;51.286;7.518;2022-10-31T02:40:47;9.10;68.40
10057;DHT22;5068;51.286;7.518;2022-10-31T02:42:41;9.10;68.10
10057;DHT22;5068;51.286;7.518;2022-10-31T02:44:36;9.10;68.00
10057;DHT22;5068;51.286;7.518;2022-10-31T02:46:24;9.10;67.90
10057;DHT22;5068;51.286;7.518;2022-10-31T02:48:09;9.10;67.80
10057;DHT22;5068;51.286;7.518;2022-10-31T02:49:54;9.10;67.60
10057;DHT22;5068;51.286;7.518;2022-10-31T02:51:39;9.10;67.50
10057;DHT22;5068;51.286;7.518;2022-10-31T02:53:21;9.10;67.30
10057;DHT22;5068;51.286;7.518;2022-10-31T02:55:08;9.10;67.20
10057;DHT22;5068;51.286;7.518;2022-10-31T02:56:50;9.10;67.20
10057;DHT22;5068;51.286;7.518;2022-10-31T02:58:39;9.10;67.10
10057;DHT22;5068;51.286;7.518;2022-10-31T03:00:20;9.10;67.10
10057;DHT22;5068;51.286;7.518;2022-10-31T03:02:09;9.10;66.90
10057;DHT22;5068;51.286;7.518;2022-10-31T03:06:53;9.10;66.90
10057;DHT22;5068;51.286;7.518;2022-10-31T03:08:45;9.10;66.50
10057;DHT22;5068;51.286;7.518;2022-10-31T03:10:37;9.10;66.40
10057;DHT22;5068;51.286;7.518;2022-10-31T03:12:26;9.10;66.30
10057;DHT22;5068;51.286;7.518;2022-10-31T03:14:11;9.10;66.30
10057;DHT22;5068;51.286;7.518;2022-10-31T03:16:06;9.10;66.20
10057;DHT22;5068;51.286;7.518;2022-10-31T03:17:58;9.00;66.20
10057;DHT22;5068;51.286;7.518;2022-10-31T03:19:41;9.00;66.20
10057;DHT22;5068;51.286;7.518;2022-10-31T03:21:27;9.00;66.50
10057;DHT22;5068;51.286;7.518;2022-10-31T03:23:13;9.00;66.30
10057;DHT22;5068;51.286;7.518;2022-10-31T03:24:56;9.00;66.30
10057;DHT22;5068;51.286;7.518;2022-10-31T03:26:36;9.00;66.20
10057;DHT22;5068;51.286;7.518;2022-10-31T03:28:26;9.00;66.30
10057;DHT22;5068;51.286;7.518;2022-10-31T03:30:12;8.90;66.20
10057;DHT22;5068;51.286;7.518;2022-10-31T03:32:03;8.90;66.10
10057;DHT22;5068;51.286;7.518;2022-10-31T03:33:45;8.90;66.10
10057;DHT22;5068;51.286;7.518;2022-10-31T03:35:25;8.90;66.00
10057;DHT22;5068;51.286;7.518;2022-10-31T03:37:07;8.90;66.00
10057;DHT22;5068;51.286;7.518;2022-10-31T03:38:48;8.90;66.00
10057;DHT22;5068;51.286;7.518;2022-10-31T03:40:28;8.90;66.10
10057;DHT22;5068;51.286;7.518;2022-10-31T03:42:10;8.90;66.10
10057;DHT22;5068;51.286;7.518;2022-10-31T03:43:57;8.80;66.00
10057;DHT22;5068;51.286;7.518;2022-10-31T03:45:43;8.80;66.00
10057;DHT22;5068;51.286;7.518;2022-10-31T03:47:23;8.80;65.90
10057;DHT22;5068;51.286;7.518;2022-10-31T03:49:04;8.80;65.80
10057;DHT22;5068;51.286;7.518;2022-10-31T03:50:47;8.80;65.90
10057;DHT22;5068;51.286;7.518;2022-10-31T03:52:29;8.80;66.00
10057;DHT22;5068;51.286;7.518;2022-10-31T03:54:24;8.80;66.20
10057;DHT22;5068;51.286;7.518;2022-10-31T03:56:11;8.80;65.80
10057;DHT22;5068;51.286;7.518;2022-10-31T03:57:56;8.70;65.60
10057;DHT22;5068;51.286;7.518;2022-10-31T03:59:42;8.70;65.50
10057;DHT22;5068;51.286;7.518;2022-10-31T04:01:25;8.70;65.60
10057;DHT22;5068;51.286;7.518;2022-10-31T04:03:09;8.70;65.50
10057;DHT22;5068;51.286;7.518;2022-10-31T04:04:54;8.70;65.50
10057;DHT22;5068;51.286;7.518;2022-10-31T04:06:32;8.70;65.50
10057;DHT22;5068;51.286;7.518;2022-10-31T04:08:18;8.70;65.50
10057;DHT22;5068;51.286;7.518;2022-10-31T04:10:01;8.60;65.40
10057;DHT22;5068;51.286;7.518;2022-10-31T04:11:46;8.60;65.40
10057;DHT22;5068;51.286;7.518;2022-10-31T04:13:49;8.60;65.40
10057;DHT22;5068;51.286;7.518;2022-10-31T04:15:29;8.60;65.50
10057;DHT22;5068;51.286;7.518;2022-10-31T04:17:12;8.60;65.60
10057;DHT22;5068;51.286;7.518;2022-10-31T04:18:52;8.60;65.70
10057;DHT22;5068;51.286;7.518;2022-10-31T04:20:38;8.60;65.70
10057;DHT22;5068;51.286;7.518;2022-10-31T04:22:23;8.60;65.80
10057;DHT22;5068;51.286;7.518;2022-10-31T04:24:00;8.50;65.70
10057;DHT22;5068;51.286;7.518;2022-10-31T04:25:38;8.50;66.00
10057;DHT22;5068;51.286;7.518;2022-10-31T04:27:18;8.50;65.60
10057;DHT22;5068;51.286;7.518;2022-10-31T04:28:56;8.50;65.50
10057;DHT22;5068;51.286;7.518;2022-10-31T04:30:40;8.50;65.40
10057;DHT22;5068;51.286;7.518;2022-10-31T04:32:17;8.50;65.40
10057;DHT22;5068;51.286;7.518;2022-10-31T04:33:58;8.50;65.50
10057;DHT22;5068;51.286;7.518;2022-10-31T04:35:41;8.50;65.40
10057;DHT22;5068;51.286;7.518;2022-10-31T04:37:19;8.50;65.50
10057;DHT22;5068;51.286;7.518;2022-10-31T04:38:57;8.50;65.50
10057;DHT22;5068;51.286;7.518;2022-10-31T04:40:46;8.40;65.40
10057;DHT22;5068;51.286;7.518;2022-10-31T04:42:44;8.40;65.40
10057;DHT22;5068;51.286;7.518;2022-10-31T04:44:23;8.40;65.40
10057;DHT22;5068;51.286;7.518;2022-10-31T04:46:06;8.40;65.40
10057;DHT22;5068;51.286;7.518;2022-10-31T04:47:44;8.40;65.50
10057;DHT22;5068;51.286;7.518;2022-10-31T04:49:32;8.40;65.60
10057;DHT22;5068;51.286;7.518;2022-10-31T04:51:12;8.40;65.70
10057;DHT22;5068;51.286;7.518;2022-10-31T04:52:52;8.40;65.70
10057;DHT22;5068;51.286;7.518;2022-10-31T04:54:33;8.30;65.60
10057;DHT22;5068;51.286;7.518;2022-10-31T04:56:30;8.30;65.60
10057;DHT22;5068;51.286;7.518;2022-10-31T04:58:16;8.30;65.60
10057;DHT22;5068;51.286;7.518;2022-10-31T04:59:53;8.30;65.60
10057;DHT22;5068;51.286;7.518;2022-10-31T05:01:31;8.30;65.60
10057;DHT22;5068;51.286;7.518;2022-10-31T05:03:11;8.30;65.60
10057;DHT22;5068;51.286;7.518;2022-10-31T05:04:55;8.30;65.70
10057;DHT22;5068;51.286;7.518;2022-10-31T05:06:35;8.30;65.90
10057;DHT22;5068;51.286;7.518;2022-10-31T05:08:14;8.30;65.90
10057;DHT22;5068;51.286;7.518;2022-10-31T05:09:55;8.30;65.70
10057;DHT22;5068;51.286;7.518;2022-10-31T05:11:31;8.30;65.70
10057;DHT22;5068;51.286;7.518;2022-10-31T05:13:27;8.30;65.60
10057;DHT22;5068;51.286;7.518;2022-10-31T05:15:34;8.20;65.50
10057;DHT22;5068;51.286;7.518;2022-10-31T05:17:35;8.20;65.40
10057;DHT22;5068;51.286;7.518;2022-10-31T05:19:31;8.20;65.40
10057;DHT22;5068;51.286;7.518;2022-10-31T05:21:29;8.20;65.30
10057;DHT22;5068;51.286;7.518;2022-10-31T05:23:08;8.20;65.30
10057;DHT22;5068;51.286;7.518;2022-10-31T05:24:47;8.20;65.30
10057;DHT22;5068;51.286;7.518;2022-10-31T05:26:25;8.20;65.40
10057;DHT22;5068;51.286;7.518;2022-10-31T05:28:02;8.20;65.50
10057;DHT22;5068;51.286;7.518;2022-10-31T05:29:40;8.10;65.40
10057;DHT22;5068;51.286;7.518;2022-10-31T05:31:17;8.10;65.40
10057;DHT22;5068;51.286;7.518;2022-10-31T05:33:03;8.10;65.40
10057;DHT22;5068;51.286;7.518;2022-10-31T05:35:00;8.10;65.40
10057;DHT22;5068;51.286;7.518;2022-10-31T05:37:08;8.10;65.40
10057;DHT22;5068;51.286;7.518;2022-10-31T05:38:50;8.10;65.50
10057;DHT22;5068;51.286;7.518;2022-10-31T05:40:34;8.10;65.60
10057;DHT22;5068;51.286;7.518;2022-10-31T05:42:12;8.00;65.50
10057;DHT22;5068;51.286;7.518;2022-10-31T05:43:51;8.00;65.60
10057;DHT22;5068;51.286;7.518;2022-10-31T05:45:34;8.00;65.60
10057;DHT22;5068;51.286;7.518;2022-10-31T05:47:25;8.00;65.60
10057;DHT22;5068;51.286;7.518;2022-10-31T05:49:27;8.00;65.70
10057;DHT22;5068;51.286;7.518;2022-10-31T05:51:25;8.00;65.70
10057;DHT22;5068;51.286;7.518;2022-10-31T05:53:04;8.00;65.70
10057;DHT22;5068;51.286;7.518;2022-10-31T05:54:44;8.00;66.50
10057;DHT22;5068;51.286;7.518;2022-10-31T05:56:30;8.00;65.90
10057;DHT22;5068;51.286;7.518;2022-10-31T05:58:17;8.00;65.90
10057;DHT22;5068;51.286;7.518;2022-10-31T06:00:04;8.00;66.00
10057;DHT22;5068;51.286;7.518;2022-10-31T06:02:08;7.90;65.80
10057;DHT22;5068;51.286;7.518;2022-10-31T06:04:05;7.90;65.80
10057;DHT22;5068;51.286;7.518;2022-10-31T06:05:43;8.00;65.90
10057;DHT22;5068;51.286;7.518;2022-10-31T06:07:32;7.90;65.80
10057;DHT22;5068;51.286;7.518;2022-10-31T06:09:11;7.90;66.00
10057;DHT22;5068;51.286;7.518;2022-10-31T06:10:51;7.90;66.00
10057;DHT22;5068;51.286;7.518;2022-10-31T06:12:51;7.90;66.00
10057;DHT22;5068;51.286;7.518;2022-10-31T06:14:40;7.90;66.00
10057;DHT22;5068;51.286;7.518;2022-10-31T06:16:17;7.90;66.10
10057;DHT22;5068;51.286;7.518;2022-10-31T06:18:03;7.90;66.10
10057;DHT22;5068;51.286;7.518;2022-10-31T06:19:52;7.90;66.20
10057;DHT22;5068;51.286;7.518;2022-10-31T06:21:32;7.90;66.10
10057;DHT22;5068;51.286;7.518;2022-10-31T06:23:11;7.90;66.00
10057;DHT22;5068;51.286;7.518;2022-10-31T06:24:50;7.80;66.00
10057;DHT22;5068;51.286;7.518;2022-10-31T06:26:40;7.80;66.10
10057;DHT22;5068;51.286;7.518;2022-10-31T06:28:17;7.80;66.10
10057;DHT22;5068;51.286;7.518;2022-10-31T06:30:01;7.80;65.70
10057;DHT22;5068;51.286;7.518;2022-10-31T06:31:43;7.80;66.20
10057;DHT22;5068;51.286;7.518;2022-10-31T06:33:26;7.80;66.10
10057;DHT22;5068;51.286;7.518;2022-10-31T06:35:06;7.80;66.20
10057;DHT22;5068;51.286;7.518;2022-10-31T06:36:46;7.80;66.20
10057;DHT22;5068;51.286;7.518;2022-10-31T06:38:30;7.80;66.30
10057;DHT22;5068;51.286;7.518;2022-10-31T06:40:11;7.80;66.40
10057;DHT22;5068;51.286;7.518;2022-10-31T06:42:11;7.80;66.50
10057;DHT22;5068;51.286;7.518;2022-10-31T06:43:52;7.80;66.50
10057;DHT22;5068;51.286;7.518;2022-10-31T06:45:50;7.80;66.50
10057;DHT22;5068;51.286;7.518;2022-10-31T06:47:38;7.80;66.50
10057;DHT22;5068;51.286;7.518;2022-10-31T06:49:40;7.80;66.50
10057;DHT22;5068;51.286;7.518;2022-10-31T06:51:22;7.80;66.60
10057;DHT22;5068;51.286;7.518;2022-10-31T06:52:59;7.80;66.70
10057;DHT22;5068;51.286;7.518;2022-10-31T06:54:37;7.80;66.60
10057;DHT22;5068;51.286;7.518;2022-10-31T06:56:16;7.80;66.60
10057;DHT22;5068;51.286;7.518;2022-10-31T06:58:01;7.80;66.70
10057;DHT22;5068;51.286;7.518;2022-10-31T06:59:39;7.70;66.70
10057;DHT22;5068;51.286;7.518;2022-10-31T07:01:31;7.80;67.00
10057;DHT22;5068;51.286;7.518;2022-10-31T07:03:14;7.80;67.20
10057;DHT22;5068;51.286;7.518;2022-10-31T07:04:53;7.80;67.30
10057;DHT22;5068;51.286;7.518;2022-10-31T07:06:32;7.80;67.40
10057;DHT22;5068;51.286;7.518;2022-10-31T07:08:14;7.80;67.40
10057;DHT22;5068;51.286;7.518;2022-10-31T07:09:53;7.80;67.60
10057;DHT22;5068;51.286;7.518;2022-10-31T07:11:51;7.80;67.60
10057;DHT22;5068;51.286;7.518;2022-10-31T07:13:29;7.80;67.70
10057;DHT22;5068;51.286;7.518;2022-10-31T07:15:11;7.80;67.70
10057;DHT22;5068;51.286;7.518;2022-10-31T07:16:51;7.80;67.90
10057;DHT22;5068;51.286;7.518;2022-10-31T07:18:35;7.80;68.10
10057;DHT22;5068;51.286;7.518;2022-10-31T07:20:15;7.90;68.40
10057;DHT22;5068;51.286;7.518;2022-10-31T07:21:53;7.90;68.50
10057;DHT22;5068;51.286;7.518;2022-10-31T07:23:32;7.90;68.70
10057;DHT22;5068;51.286;7.518;2022-10-31T07:25:30;7.90;68.70
10057;DHT22;5068;51.286;7.518;2022-10-31T07:27:21;7.90;68.70
10057;DHT22;5068;51.286;7.518;2022-10-31T07:28:59;7.90;68.90
10057;DHT22;5068;51.286;7.518;2022-10-31T07:30:37;8.00;69.00
10057;DHT22;5068;51.286;7.518;2022-10-31T07:32:17;8.00;69.10
10057;DHT22;5068;51.286;7.518;2022-10-31T07:34:02;8.00;69.20
10057;DHT22;5068;51.286;7.518;2022-10-31T07:35:54;8.10;69.40
10057;DHT22;5068;51.286;7.518;2022-10-31T07:37:36;8.10;69.50
10057;DHT22;5068;51.286;7.518;2022-10-31T07:39:14;8.10;69.70
10057;DHT22;5068;51.286;7.518;2022-10-31T07:40:52;8.10;69.90
10057;DHT22;5068;51.286;7.518;2022-10-31T07:42:35;8.20;70.10
10057;DHT22;5068;51.286;7.518;2022-10-31T07:44:19;8.20;70.20
10057;DHT22;5068;51.286;7.518;2022-10-31T07:46:19;8.20;70.10
10057;DHT22;5068;51.286;7.518;2022-10-31T07:48:19;8.30;70.30
10057;DHT22;5068;51.286;7.518;2022-10-31T07:50:21;8.30;70.40
10057;DHT22;5068;51.286;7.518;2022-10-31T07:52:19;8.30;70.30
10057;DHT22;5068;51.286;7.518;2022-10-31T07:54:16;8.40;70.50
10057;DHT22;5068;51.286;7.518;2022-10-31T07:55:55;8.40;70.50
10057;DHT22;5068;51.286;7.518;2022-10-31T07:57:37;8.50;70.70
10057;DHT22;5068;51.286;7.518;2022-10-31T07:59:17;8.50;70.80
10057;DHT22;5068;51.286;7.518;2022-10-31T08:00:55;8.50;71.00
10057;DHT22;5068;51.286;7.518;2022-10-31T08:02:44;8.50;71.00
10057;DHT22;5068;51.286;7.518;2022-10-31T08:04:44;8.60;71.10
10057;DHT22;5068;51.286;7.518;2022-10-31T08:06:41;8.60;71.20
10057;DHT22;5068;51.286;7.518;2022-10-31T08:08:31;8.70;71.20
10057;DHT22;5068;51.286;7.518;2022-10-31T08:10:13;8.70;71.20
10057;DHT22;5068;51.286;7.518;2022-10-31T08:11:54;8.70;71.20
10057;DHT22;5068;51.286;7.518;2022-10-31T08:13:32;8.80;71.40
10057;DHT22;5068;51.286;7.518;2022-10-31T08:15:09;8.80;71.40
10057;DHT22;5068;51.286;7.518;2022-10-31T08:16:47;8.80;71.40
10057;DHT22;5068;51.286;7.518;2022-10-31T08:18:25;8.90;71.60
10057;DHT22;5068;51.286;7.518;2022-10-31T08:20:06;8.90;71.70
10057;DHT22;5068;51.286;7.518;2022-10-31T08:21:51;8.90;71.80
10057;DHT22;5068;51.286;7.518;2022-10-31T08:23:32;9.00;71.80
10057;DHT22;5068;51.286;7.518;2022-10-31T08:25:10;9.00;71.60
10057;DHT22;5068;51.286;7.518;2022-10-31T08:26:48;9.00;71.60
10057;DHT22;5068;51.286;7.518;2022-10-31T08:28:27;9.00;71.60
10057;DHT22;5068;51.286;7.518;2022-10-31T08:30:06;9.10;71.70
10057;DHT22;5068;51.286;7.518;2022-10-31T08:31:47;9.10;71.70
10057;DHT22;5068;51.286;7.518;2022-10-31T08:33:45;9.20;71.80
10057;DHT22;5068;51.286;7.518;2022-10-31T08:35:44;9.20;71.80
10057;DHT22;5068;51.286;7.518;2022-10-31T08:37:37;9.30;71.90
10057;DHT22;5068;51.286;7.518;2022-10-31T08:39:13;9.30;71.80
10057;DHT22;5068;51.286;7.518;2022-10-31T08:40:54;9.30;71.90
10057;DHT22;5068;51.286;7.518;2022-10-31T08:42:32;9.40;71.90
10057;DHT22;5068;51.286;7.518;2022-10-31T08:44:11;9.40;71.90
10057;DHT22;5068;51.286;7.518;2022-10-31T08:45:50;9.40;71.80
10057;DHT22;5068;51.286;7.518;2022-10-31T08:47:34;9.50;71.90
10057;DHT22;5068;51.286;7.518;2022-10-31T08:49:12;9.50;71.80
10057;DHT22;5068;51.286;7.518;2022-10-31T08:50:55;9.60;71.80
10057;DHT22;5068;51.286;7.518;2022-10-31T08:52:35;9.60;71.90
10057;DHT22;5068;51.286;7.518;2022-10-31T08:54:32;9.60;72.00
10057;DHT22;5068;51.286;7.518;2022-10-31T08:56:29;9.70;72.30
10057;DHT22;5068;51.286;7.518;2022-10-31T08:58:11;9.80;72.00
10057;DHT22;5068;51.286;7.518;2022-10-31T08:59:55;9.80;72.10
10057;DHT22;5068;51.286;7.518;2022-10-31T09:01:52;9.90;72.20
10057;DHT22;5068;51.286;7.518;2022-10-31T09:03:31;9.90;72.10
10057;DHT22;5068;51.286;7.518;2022-10-31T09:05:10;10.00;72.10
10057;DHT22;5068;51.286;7.518;2022-10-31T09:06:50;10.00;72.00
10057;DHT22;5068;51.286;7.518;2022-10-31T09:08:48;10.10;72.10
10057;DHT22;5068;51.286;7.518;2022-10-31T09:10:27;10.20;72.20
10057;DHT22;5068;51.286;7.518;2022-10-31T09:12:08;10.20;72.20
10057;DHT22;5068;51.286;7.518;2022-10-31T09:14:16;10.30;73.10
10057;DHT22;5068;51.286;7.518;2022-10-31T09:16:16;10.30;72.20
10057;DHT22;5068;51.286;7.518;2022-10-31T09:17:54;10.50;72.20
10057;DHT22;5068;51.286;7.518;2022-10-31T09:19:39;10.50;72.10
10057;DHT22;5068;51.286;7.518;2022-10-31T09:21:18;10.50;72.00
10057;DHT22;5068;51.286;7.518;2022-10-31T09:22:59;10.60;72.00
10057;DHT22;5068;51.286;7.518;2022-10-31T09:24:41;10.70;72.30
10057;DHT22;5068;51.286;7.518;2022-10-31T09:26:25;10.70;72.60
10057;DHT22;5068;51.286;7.518;2022-10-31T09:28:11;10.80;72.70
10057;DHT22;5068;51.286;7.518;2022-10-31T09:30:05;10.90;72.90
10057;DHT22;5068;51.286;7.518;2022-10-31T09:31:44;11.00;72.90
10057;DHT22;5068;51.286;7.518;2022-10-31T09:33:45;11.00;72.70
10057;DHT22;5068;51.286;7.518;2022-10-31T09:35:42;11.10;72.80
10057;DHT22;5068;51.286;7.518;2022-10-31T09:37:19;11.20;72.60
10057;DHT22;5068;51.286;7.518;2022-10-31T09:39:01;11.30;72.40
10057;DHT22;5068;51.286;7.518;2022-10-31T09:40:44;11.30;72.40
10057;DHT22;5068;51.286;7.518;2022-10-31T09:42:39;11.40;72.40
10057;DHT22;5068;51.286;7.518;2022-10-31T09:44:38;11.50;72.40
10057;DHT22;5068;51.286;7.518;2022-10-31T09:46:40;11.60;72.10
10057;DHT22;5068;51.286;7.518;2022-10-31T09:50:46;11.70;72.10
10057;DHT22;5068;51.286;7.518;2022-10-31T09:52:57;11.80;72.10
10057;DHT22;5068;51.286;7.518;2022-10-31T09:54:44;11.90;72.30
10057;DHT22;5068;51.286;7.518;2022-10-31T09:56:28;11.90;72.20
10057;DHT22;5068;51.286;7.518;2022-10-31T09:58:13;12.00;72.00
10057;DHT22;5068;51.286;7.518;2022-10-31T09:59:59;12.10;72.10
10057;DHT22;5068;51.286;7.518;2022-10-31T10:02:05;12.10;72.80
10057;DHT22;5068;51.286;7.518;2022-10-31T10:03:51;12.20;72.00
10057;DHT22;5068;51.286;7.518;2022-10-31T10:05:56;12.20;71.90
10057;DHT22;5068;51.286;7.518;2022-10-31T10:08:09;12.30;71.70
10057;DHT22;5068;51.286;7.518;2022-10-31T10:10:15;12.40;71.30
10057;DHT22;5068;51.286;7.518;2022-10-31T10:12:19;12.40;71.00
10057;DHT22;5068;51.286;7.518;2022-10-31T10:14:23;12.50;70.80
10057;DHT22;5068;51.286;7.518;2022-10-31T10:16:33;12.50;70.80
10057;DHT22;5068;51.286;7.518;2022-10-31T10:18:27;12.60;70.80
10057;DHT22;5068;51.286;7.518;2022-10-31T10:20:25;12.60;70.80
10057;DHT22;5068;51.286;7.518;2022-10-31T10:22:12;12.70;70.90
10057;DHT22;5068;51.286;7.518;2022-10-31T10:24:03;12.70;70.70
10057;DHT22;5068;51.286;7.518;2022-10-31T10:25:56;12.80;70.60
10057;DHT22;5068;51.286;7.518;2022-10-31T10:27:58;12.80;70.50
10057;DHT22;5068;51.286;7.518;2022-10-31T10:29:44;12.90;70.50
10057;DHT22;5068;51.286;7.518;2022-10-31T10:31:37;12.90;70.40
10057;DHT22;5068;51.286;7.518;2022-10-31T10:33:21;13.00;70.80
10057;DHT22;5068;51.286;7.518;2022-10-31T10:35:10;13.00;71.20
10057;DHT22;5068;51.286;7.518;2022-10-31T10:37:00;13.10;72.00
10057;DHT22;5068;51.286;7.518;2022-10-31T10:38:51;13.20;72.30
10057;DHT22;5068;51.286;7.518;2022-10-31T10:40:31;13.30;72.40
10057;DHT22;5068;51.286;7.518;2022-10-31T10:42:13;13.30;72.00
10057;DHT22;5068;51.286;7.518;2022-10-31T10:44:10;13.40;71.80
10057;DHT22;5068;51.286;7.518;2022-10-31T10:46:19;13.50;71.90
10057;DHT22;5068;51.286;7.518;2022-10-31T10:48:30;13.60;72.60
10057;DHT22;5068;51.286;7.518;2022-10-31T10:50:17;13.80;72.40
10057;DHT22;5068;51.286;7.518;2022-10-31T10:51:58;13.90;73.00
10057;DHT22;5068;51.286;7.518;2022-10-31T10:56:30;14.20;71.90
10057;DHT22;5068;51.286;7.518;2022-10-31T10:58:16;14.30;71.90
10057;DHT22;5068;51.286;7.518;2022-10-31T10:59:55;14.50;71.90
10057;DHT22;5068;51.286;7.518;2022-10-31T11:01:39;14.60;71.60
10057;DHT22;5068;51.286;7.518;2022-10-31T11:03:20;14.70;70.50
10057;DHT22;5068;51.286;7.518;2022-10-31T11:05:09;14.90;71.00
10057;DHT22;5068;51.286;7.518;2022-10-31T11:07:10;15.00;70.90
10057;DHT22;5068;51.286;7.518;2022-10-31T11:08:48;15.20;70.70
10057;DHT22;5068;51.286;7.518;2022-10-31T11:10:27;15.30;70.10
10057;DHT22;5068;51.286;7.518;2022-10-31T11:12:09;15.40;68.70
10057;DHT22;5068;51.286;7.518;2022-10-31T11:13:48;15.50;67.60
10057;DHT22;5068;51.286;7.518;2022-10-31T11:15:26;15.60;68.40
10057;DHT22;5068;51.286;7.518;2022-10-31T11:17:09;15.70;68.80
10057;DHT22;5068;51.286;7.518;2022-10-31T11:18:49;15.80;68.00
10057;DHT22;5068;51.286;7.518;2022-10-31T11:20:31;15.90;67.20
10057;DHT22;5068;51.286;7.518;2022-10-31T11:22:07;16.00;66.70
10057;DHT22;5068;51.286;7.518;2022-10-31T11:23:47;16.10;66.40
10057;DHT22;5068;51.286;7.518;2022-10-31T11:25:21;16.20;66.50
10057;DHT22;5068;51.286;7.518;2022-10-31T11:27:13;16.20;65.60
10057;DHT22;5068;51.286;7.518;2022-10-31T11:28:56;16.30;63.70
10057;DHT22;5068;51.286;7.518;2022-10-31T11:30:42;16.40;63.80
10057;DHT22;5068;51.286;7.518;2022-10-31T11:32:20;16.50;63.60